Time;durP1;ratioP1;P1;durP2;ratioP2;P2;SDS_P1;SDS_P2;PMS_P1;PMS_P2;Temp;Humidity;BMP_temperature;BMP_pressure;BME280_temperature;BME280_humidity;BME280_pressure;Samples;Min_cycle;Max_cycle;Signal;HPM_P1;HPM_P2
2023/03/18 00:02:18;;;;;;;0.40;0.40;;;8.60;87.50;;;;;;5036562;28;20194;-69
2023/03/18 00:04:45;;;;;;;0.50;0.50;;;8.50;87.80;;;;;;5036562;28;20248;-68
2023/03/18 00:07:11;;;;;;;0.38;0.38;;;8.60;87.60;;;;;;5036220;28;20174;-68
2023/03/18 00:09:37;;;;;;;0.60;0.60;;;8.50;88.10;;;;;;5036258;28;20174;-69
2023/03/18 00:12:03;;;;;;;0.30;0.30;;;8.40;89.10;;;;;;5036227;28;20228;-69
2023/03/18 00:14:30;;;;;;;0.98;0.50;;;8.20;88.80;;;;;;5036159;28;20210;-69
2023/03/18 00:16:56;;;;;;;1.20;1.20;;;8.30;89.20;;;;;;5036158;28;20170;-68
2023/03/18 00:19:23;;;;;;;0.63;0.63;;;8.30;89.00;;;;;;5036287;28;20177;-68
2023/03/18 00:21:49;;;;;;;0.40;0.40;;;8.40;88.50;;;;;;5036147;28;20558;-69
2023/03/18 00:24:15;;;;;;;0.50;0.50;;;8.40;88.30;;;;;;5035980;28;20173;-68
2023/03/18 00:26:42;;;;;;;0.88;0.82;;;8.30;88.10;;;;;;5036026;28;20177;-68
2023/03/18 00:29:09;;;;;;;2.35;0.70;;;8.30;88.10;;;;;;5036135;28;20638;-68
2023/03/18 00:31:37;;;;;;;0.82;0.82;;;8.30;87.90;;;;;;5035970;28;20201;-68
2023/03/18 00:34:03;;;;;;;0.35;0.35;;;8.20;87.30;;;;;;5035788;28;20697;-69
2023/03/18 00:36:29;;;;;;;3.83;1.60;;;8.20;87.70;;;;;;5035842;28;20174;-69
2023/03/18 00:39:02;;;;;;;0.40;0.40;;;8.00;88.80;;;;;;5035704;28;20177;-68
2023/03/18 00:41:29;;;;;;;0.40;0.40;;;8.10;88.90;;;;;;5035935;28;20186;-69
2023/03/18 00:43:55;;;;;;;0.40;0.40;;;8.00;88.70;;;;;;5035750;28;20274;-68
2023/03/18 00:46:25;;;;;;;0.82;0.50;;;8.00;88.70;;;;;;5035413;28;20182;-68
2023/03/18 00:48:53;;;;;;;0.40;0.40;;;7.90;89.30;;;;;;5035316;28;20181;-69
2023/03/18 00:51:21;;;;;;;0.70;0.70;;;7.90;89.70;;;;;;5035738;28;20586;-68
2023/03/18 00:53:52;;;;;;;0.47;0.47;;;7.80;90.10;;;;;;5035486;28;20206;-69
2023/03/18 00:56:20;;;;;;;0.70;0.40;;;7.60;90.30;;;;;;5017642;28;20179;-68
2023/03/18 00:58:47;;;;;;;0.40;0.40;;;7.50;90.40;;;;;;5035562;28;20174;-68
2023/03/18 01:01:14;;;;;;;0.60;0.60;;;7.50;90.70;;;;;;5035532;28;20185;-69
2023/03/18 01:03:41;;;;;;;0.50;0.50;;;7.60;90.70;;;;;;5035325;28;20576;-69
2023/03/18 01:06:09;;;;;;;0.40;0.40;;;7.60;90.60;;;;;;5035807;28;20205;-69
2023/03/18 01:08:35;;;;;;;0.60;0.60;;;7.60;90.40;;;;;;5035234;28;20536;-68
2023/03/18 01:11:02;;;;;;;6.47;0.80;;;7.60;90.30;;;;;;5035358;28;20193;-69
2023/03/18 01:13:29;;;;;;;0.40;0.40;;;7.60;90.70;;;;;;5035200;28;20180;-68
2023/03/18 01:15:55;;;;;;;0.40;0.40;;;7.60;90.70;;;;;;5035142;28;20188;-68
2023/03/18 01:18:21;;;;;;;0.30;0.30;;;7.60;90.60;;;;;;5035261;28;20166;-67
2023/03/18 01:20:47;;;;;;;0.40;0.40;;;7.50;90.90;;;;;;5034988;28;20399;-68
2023/03/18 01:23:13;;;;;;;0.40;0.40;;;7.60;90.80;;;;;;5034917;28;20215;-69
2023/03/18 01:25:38;;;;;;;0.50;0.50;;;7.50;90.80;;;;;;5035150;28;20629;-69
2023/03/18 01:28:05;;;;;;;0.60;0.60;;;7.50;91.10;;;;;;5034921;28;20630;-69
2023/03/18 01:30:33;;;;;;;0.50;0.50;;;7.40;91.40;;;;;;5034982;28;20253;-68
2023/03/18 01:32:59;;;;;;;0.40;0.40;;;7.40;91.70;;;;;;5034674;28;20595;-68
2023/03/18 01:35:25;;;;;;;1.80;0.77;;;7.40;91.70;;;;;;5034737;28;20211;-69
2023/03/18 01:37:52;;;;;;;0.40;0.40;;;7.40;91.80;;;;;;5034636;28;20185;-69
2023/03/18 01:40:19;;;;;;;0.52;0.52;;;7.40;91.90;;;;;;5034856;28;20176;-68
2023/03/18 01:42:52;;;;;;;6.00;1.25;;;7.40;91.80;;;;;;5034409;28;20204;-68
2023/03/18 01:45:20;;;;;;;0.40;0.40;;;7.40;92.00;;;;;;5034787;28;20714;-68
2023/03/18 01:47:47;;;;;;;0.70;0.70;;;7.30;92.20;;;;;;5034414;28;20530;-68
2023/03/18 01:50:14;;;;;;;1.45;1.35;;;7.30;92.20;;;;;;5034832;28;20173;-69
2023/03/18 01:52:42;;;;;;;0.43;0.43;;;7.30;92.30;;;;;;5034493;28;20196;-68
2023/03/18 01:55:13;;;;;;;0.40;0.40;;;7.30;92.70;;;;;;5034411;28;20236;-68
2023/03/18 01:57:40;;;;;;;1.63;1.10;;;7.40;92.40;;;;;;5034408;28;20173;-69
2023/03/18 02:00:09;;;;;;;0.50;0.50;;;7.40;92.50;;;;;;5034200;28;20551;-69
2023/03/18 02:02:39;;;;;;;1.23;1.23;;;7.30;92.60;;;;;;5034186;28;20315;-69
2023/03/18 02:05:08;;;;;;;0.40;0.40;;;7.30;92.70;;;;;;5034397;28;20584;-68
2023/03/18 02:07:35;;;;;;;1.10;1.02;;;7.30;92.80;;;;;;5033943;28;20172;-68
2023/03/18 02:10:09;;;;;;;0.50;0.50;;;7.30;92.80;;;;;;5034230;28;20182;-68
2023/03/18 02:12:38;;;;;;;0.30;0.30;;;7.30;92.80;;;;;;5034055;28;20201;-68
2023/03/18 02:15:12;;;;;;;0.40;0.40;;;7.30;92.80;;;;;;5034116;28;20219;-67
2023/03/18 02:17:55;;;;;;;0.40;0.40;;;7.20;92.90;;;;;;5034012;28;20232;-68
2023/03/18 02:20:54;;;;;;;0.40;0.40;;;7.20;93.00;;;;;;5034249;28;20205;-68
2023/03/18 02:23:51;;;;;;;0.30;0.30;;;7.20;93.40;;;;;;5033644;28;20198;-68
2023/03/18 02:26:26;;;;;;;0.75;0.60;;;7.30;93.10;;;;;;5016022;28;20181;-68
2023/03/18 02:28:56;;;;;;;0.40;0.40;;;7.30;93.20;;;;;;5033940;28;20497;-68
2023/03/18 02:31:22;;;;;;;0.60;0.60;;;7.30;93.30;;;;;;5033657;28;20188;-68
2023/03/18 02:33:48;;;;;;;0.60;0.60;;;7.40;93.10;;;;;;5033611;28;20193;-67
2023/03/18 02:36:20;;;;;;;0.75;0.75;;;7.40;92.90;;;;;;5033509;28;20180;-67
2023/03/18 02:38:46;;;;;;;0.50;0.50;;;7.50;92.80;;;;;;5033631;28;20170;-69
2023/03/18 02:41:15;;;;;;;0.30;0.30;;;7.40;92.60;;;;;;5033709;28;20551;-68
2023/03/18 02:43:41;;;;;;;0.40;0.40;;;7.50;92.80;;;;;;5033350;28;20227;-69
2023/03/18 02:46:22;;;;;;;0.70;0.70;;;7.40;92.80;;;;;;5033594;28;20227;-68
2023/03/18 02:48:48;;;;;;;0.70;0.50;;;7.40;93.10;;;;;;5033721;28;20410;-69
2023/03/18 02:51:15;;;;;;;0.40;0.40;;;7.50;93.00;;;;;;5033718;28;20303;-68
2023/03/18 02:53:42;;;;;;;0.40;0.40;;;7.40;93.00;;;;;;5033405;28;20708;-68
2023/03/18 02:56:09;;;;;;;0.40;0.40;;;7.40;93.10;;;;;;5033313;28;20173;-69
2023/03/18 02:58:36;;;;;;;1.45;1.40;;;7.40;93.20;;;;;;5033333;28;20255;-67
2023/03/18 03:01:02;;;;;;;0.40;0.40;;;7.40;93.30;;;;;;5033276;28;20170;-68
2023/03/18 03:03:28;;;;;;;0.40;0.40;;;7.30;93.30;;;;;;5033317;28;20174;-69
2023/03/18 03:05:55;;;;;;;1.10;1.07;;;7.30;93.40;;;;;;5033103;28;20525;-68
2023/03/18 03:08:20;;;;;;;0.47;0.47;;;7.40;93.40;;;;;;5033848;28;20184;-68
2023/03/18 03:10:46;;;;;;;0.60;0.60;;;7.30;93.30;;;;;;5018912;28;20181;-68
2023/03/18 03:13:12;;;;;;;1.23;0.87;;;7.40;93.40;;;;;;5039747;28;20220;-68
2023/03/18 03:15:38;;;;;;;0.40;0.40;;;7.40;93.20;;;;;;5039769;28;20196;-69
2023/03/18 03:18:04;;;;;;;0.40;0.40;;;7.40;92.90;;;;;;5021953;28;20180;-68
2023/03/18 03:20:36;;;;;;;3.43;0.53;;;7.30;93.00;;;;;;5039871;28;20174;-68
2023/03/18 03:23:03;;;;;;;0.65;0.65;;;7.30;93.10;;;;;;5039667;28;20423;-69
2023/03/18 03:25:29;;;;;;;0.63;0.50;;;7.30;93.10;;;;;;5039727;28;20301;-67
2023/03/18 03:27:55;;;;;;;0.35;0.35;;;7.30;93.20;;;;;;5039539;28;20199;-68
2023/03/18 03:30:22;;;;;;;1.60;0.60;;;7.30;93.20;;;;;;5039688;28;20281;-68
2023/03/18 03:32:48;;;;;;;0.50;0.50;;;7.20;93.30;;;;;;5039692;28;20193;-68
2023/03/18 03:35:16;;;;;;;0.38;0.38;;;7.20;93.20;;;;;;5039696;28;20563;-68
2023/03/18 03:37:42;;;;;;;0.85;0.85;;;7.20;93.40;;;;;;5039453;28;20554;-68
2023/03/18 03:40:14;;;;;;;1.60;0.65;;;7.20;92.90;;;;;;5039746;28;20252;-68
2023/03/18 03:42:40;;;;;;;0.30;0.30;;;7.20;92.80;;;;;;5039523;28;20192;-68
2023/03/18 03:45:07;;;;;;;0.47;0.47;;;7.20;92.70;;;;;;5039509;28;20188;-68
2023/03/18 03:47:33;;;;;;;0.40;0.40;;;7.10;93.20;;;;;;5039461;28;20416;-68
2023/03/18 03:49:58;;;;;;;0.60;0.60;;;7.10;93.00;;;;;;5039608;28;20199;-68
2023/03/18 03:52:24;;;;;;;0.50;0.50;;;7.00;93.10;;;;;;5039447;28;20900;-67
2023/03/18 03:54:50;;;;;;;0.50;0.50;;;6.90;93.40;;;;;;5039786;28;20187;-68
2023/03/18 03:57:16;;;;;;;0.30;0.30;;;6.90;93.50;;;;;;5039319;28;20399;-68
2023/03/18 03:59:42;;;;;;;0.40;0.40;;;6.80;93.30;;;;;;5039451;28;20172;-68
2023/03/18 04:02:08;;;;;;;0.60;0.60;;;6.80;93.40;;;;;;5039432;28;20595;-69
2023/03/18 04:04:34;;;;;;;0.50;0.50;;;6.80;93.40;;;;;;5039394;28;20172;-68
2023/03/18 04:07:00;;;;;;;0.77;0.77;;;6.70;93.70;;;;;;5039270;28;20965;-68
2023/03/18 04:09:26;;;;;;;14.47;0.77;;;6.80;93.70;;;;;;5039413;28;20422;-68
2023/03/18 04:11:51;;;;;;;0.40;0.40;;;6.70;93.50;;;;;;5039232;28;20190;-68
2023/03/18 04:14:17;;;;;;;0.50;0.50;;;6.70;93.70;;;;;;5039267;28;20588;-69
2023/03/18 04:16:43;;;;;;;0.40;0.40;;;6.60;93.70;;;;;;5039311;28;20632;-68
2023/03/18 04:19:09;;;;;;;0.40;0.40;;;6.70;93.70;;;;;;5039448;28;20760;-68
2023/03/18 04:21:35;;;;;;;0.40;0.40;;;6.70;93.70;;;;;;5037374;28;20419;-68
2023/03/18 04:24:03;;;;;;;0.60;0.60;;;6.60;93.50;;;;;;5035782;28;20199;-68
2023/03/18 04:26:30;;;;;;;0.40;0.40;;;6.60;93.90;;;;;;5035897;28;20428;-68
2023/03/18 04:28:56;;;;;;;0.40;0.40;;;6.60;93.80;;;;;;5036339;28;20659;-68
2023/03/18 04:31:22;;;;;;;0.60;0.60;;;6.50;93.90;;;;;;5036011;28;20286;-68
2023/03/18 04:33:48;;;;;;;0.40;0.40;;;6.50;93.90;;;;;;5035868;28;20713;-68
2023/03/18 04:36:14;;;;;;;0.50;0.50;;;6.50;93.90;;;;;;5017925;28;20406;-68
2023/03/18 04:38:40;;;;;;;0.60;0.60;;;6.40;94.10;;;;;;5018111;28;20191;-68
2023/03/18 04:41:06;;;;;;;0.77;0.60;;;6.30;94.20;;;;;;5035881;28;20167;-68
2023/03/18 04:43:33;;;;;;;0.38;0.38;;;6.30;94.30;;;;;;5035708;28;20442;-68
2023/03/18 04:45:59;;;;;;;0.40;0.40;;;6.20;94.40;;;;;;5035671;28;20580;-68
2023/03/18 04:48:25;;;;;;;1.00;0.60;;;6.20;94.40;;;;;;5035810;28;20174;-67
2023/03/18 04:50:53;;;;;;;0.40;0.40;;;6.10;94.60;;;;;;5035676;28;20165;-67
2023/03/18 04:53:18;;;;;;;0.32;0.32;;;6.10;94.80;;;;;;5035484;28;20195;-67
2023/03/18 04:55:44;;;;;;;1.23;1.03;;;6.00;94.90;;;;;;5035335;28;20241;-68
2023/03/18 04:58:09;;;;;;;0.33;0.33;;;6.10;94.80;;;;;;5035552;28;20254;-69
2023/03/18 05:00:35;;;;;;;0.50;0.50;;;6.00;94.70;;;;;;5035578;28;20166;-68
2023/03/18 05:03:01;;;;;;;0.80;0.70;;;5.90;94.80;;;;;;5035360;28;20733;-68
2023/03/18 05:05:27;;;;;;;0.70;0.70;;;5.90;94.80;;;;;;5035224;28;20511;-67
2023/03/18 05:07:53;;;;;;;0.37;0.37;;;5.80;94.70;;;;;;5035171;28;20171;-68
2023/03/18 05:10:19;;;;;;;0.40;0.40;;;5.70;94.90;;;;;;5035331;28;20202;-68
2023/03/18 05:12:44;;;;;;;0.40;0.40;;;5.70;95.00;;;;;;5035322;28;20250;-68
2023/03/18 05:15:11;;;;;;;0.37;0.37;;;5.80;94.60;;;;;;5035176;28;20457;-68
2023/03/18 05:17:38;;;;;;;0.40;0.40;;;5.80;94.50;;;;;;5035100;28;20541;-68
2023/03/18 05:20:05;;;;;;;0.57;0.57;;;5.80;94.20;;;;;;5035183;28;20171;-68
2023/03/18 05:22:30;;;;;;;0.40;0.40;;;5.70;94.20;;;;;;5035131;28;20198;-68
2023/03/18 05:24:56;;;;;;;0.40;0.40;;;5.70;94.30;;;;;;5035001;28;20230;-68
2023/03/18 05:27:22;;;;;;;0.50;0.50;;;5.60;94.60;;;;;;5034748;28;20251;-68
2023/03/18 05:29:48;;;;;;;0.60;0.50;;;5.70;94.80;;;;;;5034909;28;20301;-68
2023/03/18 05:32:13;;;;;;;0.50;0.50;;;5.70;94.60;;;;;;5034768;28;20455;-68
2023/03/18 05:34:40;;;;;;;0.40;0.40;;;5.60;94.80;;;;;;5034325;28;20534;-68
2023/03/18 05:37:08;;;;;;;0.50;0.50;;;5.70;94.60;;;;;;5016820;28;20170;-68
2023/03/18 05:39:35;;;;;;;0.40;0.40;;;5.70;94.50;;;;;;5034158;28;20202;-68
2023/03/18 05:42:03;;;;;;;1.25;0.82;;;5.60;94.60;;;;;;5016808;28;20201;-68
2023/03/18 05:44:29;;;;;;;0.65;0.65;;;5.50;94.80;;;;;;5034440;28;20214;-68
2023/03/18 05:46:55;;;;;;;0.40;0.40;;;5.60;94.80;;;;;;5034680;28;20648;-69
2023/03/18 05:49:22;;;;;;;0.77;0.77;;;5.40;94.90;;;;;;5034900;28;20182;-68
2023/03/18 05:51:48;;;;;;;0.50;0.50;;;5.40;95.00;;;;;;5034334;28;20190;-68
2023/03/18 05:54:15;;;;;;;0.40;0.40;;;5.40;95.30;;;;;;5034557;28;20540;-68
2023/03/18 05:56:42;;;;;;;0.32;0.32;;;5.40;95.40;;;;;;5034267;28;20179;-68
2023/03/18 05:59:08;;;;;;;0.40;0.40;;;5.40;95.40;;;;;;5034445;28;20163;-68
2023/03/18 06:01:35;;;;;;;0.40;0.40;;;5.50;95.30;;;;;;5034662;28;20203;-67
2023/03/18 06:04:01;;;;;;;0.40;0.40;;;5.40;95.20;;;;;;5034163;28;20734;-68
2023/03/18 06:06:27;;;;;;;0.40;0.40;;;5.50;95.30;;;;;;5034055;28;20567;-69
2023/03/18 06:08:55;;;;;;;0.88;0.88;;;5.40;95.20;;;;;;5034448;28;20498;-68
2023/03/18 06:11:21;;;;;;;0.40;0.40;;;5.40;95.40;;;;;;5016120;28;20698;-68
2023/03/18 06:13:46;;;;;;;0.40;0.40;;;5.50;95.40;;;;;;5033802;28;20175;-67
2023/03/18 06:16:13;;;;;;;0.40;0.40;;;5.60;95.50;;;;;;5034288;28;20411;-68
2023/03/18 06:18:39;;;;;;;0.40;0.40;;;5.60;95.50;;;;;;5033981;28;20227;-68
2023/03/18 06:21:08;;;;;;;0.40;0.40;;;5.60;95.40;;;;;;5034058;28;20198;-68
2023/03/18 06:23:34;;;;;;;0.95;0.95;;;5.70;95.40;;;;;;5034230;28;20167;-68
2023/03/18 06:26:01;;;;;;;0.50;0.50;;;5.80;95.10;;;;;;5034100;28;20230;-68
2023/03/18 06:28:26;;;;;;;1.10;1.10;;;5.90;94.90;;;;;;5034378;28;20163;-68
2023/03/18 06:30:56;;;;;;;0.40;0.40;;;6.00;94.60;;;;;;5034023;28;20182;-68
2023/03/18 06:33:24;;;;;;;2.58;2.47;;;5.90;94.30;;;;;;5016104;28;20199;-68
2023/03/18 06:35:51;;;;;;;0.50;0.50;;;6.00;94.50;;;;;;5033693;28;20218;-67
2023/03/18 06:38:17;;;;;;;0.40;0.40;;;6.00;94.70;;;;;;5034036;28;20250;-68
2023/03/18 06:40:43;;;;;;;0.40;0.40;;;6.10;94.70;;;;;;5034112;28;20264;-68
2023/03/18 06:43:09;;;;;;;0.50;0.50;;;6.10;94.60;;;;;;5033929;28;20208;-68
2023/03/18 06:45:36;;;;;;;2.25;0.95;;;6.30;94.60;;;;;;5032882;28;20175;-68
2023/03/18 06:48:02;;;;;;;0.55;0.55;;;6.40;94.10;;;;;;5033441;28;20617;-68
2023/03/18 06:50:29;;;;;;;0.40;0.40;;;6.50;93.70;;;;;;5033865;28;20181;-67
2023/03/18 06:52:55;;;;;;;0.68;0.68;;;6.70;93.50;;;;;;5033817;28;20200;-68
2023/03/18 06:55:21;;;;;;;0.98;0.98;;;6.90;93.00;;;;;;5033751;28;20201;-68
2023/03/18 06:57:46;;;;;;;0.50;0.50;;;7.10;92.90;;;;;;5033396;28;20177;-68
2023/03/18 07:00:13;;;;;;;0.50;0.47;;;7.60;93.20;;;;;;5033741;28;20197;-68
2023/03/18 07:02:40;;;;;;;0.40;0.40;;;8.40;92.30;;;;;;4999402;28;20198;-68
2023/03/18 07:05:07;;;;;;;0.83;0.83;;;9.60;90.00;;;;;;5033444;28;20424;-68
2023/03/18 07:07:33;;;;;;;0.90;0.47;;;10.90;83.50;;;;;;5033530;28;20409;-69
2023/03/18 07:09:59;;;;;;;2.73;0.93;;;11.80;74.40;;;;;;5033541;28;20478;-69
2023/03/18 07:12:25;;;;;;;0.50;0.50;;;12.20;71.40;;;;;;5033329;28;20195;-68
2023/03/18 07:14:52;;;;;;;0.30;0.30;;;12.50;70.40;;;;;;5033543;28;20506;-68
2023/03/18 07:17:18;;;;;;;0.80;0.63;;;13.00;68.90;;;;;;5032954;28;20824;-68
2023/03/18 07:19:44;;;;;;;1.43;1.33;;;14.20;66.40;;;;;;5033448;28;20404;-69
2023/03/18 07:22:10;;;;;;;0.50;0.40;;;16.10;62.80;;;;;;5033520;28;20488;-70
2023/03/18 07:24:36;;;;;;;0.60;0.60;;;18.20;58.00;;;;;;5033733;28;20166;-69
2023/03/18 07:27:03;;;;;;;0.50;0.50;;;20.10;52.70;;;;;;5030422;28;20445;-69
2023/03/18 07:29:29;;;;;;;0.77;0.67;;;21.90;47.70;;;;;;5030840;28;20413;-70
2023/03/18 07:31:56;;;;;;;0.40;0.40;;;23.50;43.50;;;;;;5030039;28;20414;-70
2023/03/18 07:34:22;;;;;;;0.40;0.40;;;24.80;40.50;;;;;;5031741;28;20754;-70
2023/03/18 07:36:48;;;;;;;0.67;0.50;;;26.00;37.80;;;;;;5031696;28;20497;-70
2023/03/18 07:39:13;;;;;;;0.90;0.90;;;26.80;35.80;;;;;;5033104;28;20477;-70
2023/03/18 07:41:39;;;;;;;0.70;0.70;;;27.40;34.10;;;;;;5033100;28;20441;-70
2023/03/18 07:44:06;;;;;;;0.40;0.40;;;27.90;34.00;;;;;;5032883;28;20537;-70
2023/03/18 07:46:32;;;;;;;0.47;0.43;;;28.30;32.80;;;;;;5032831;28;20201;-70
2023/03/18 07:48:57;;;;;;;0.60;0.60;;;28.60;31.60;;;;;;5015513;28;20448;-70
2023/03/18 07:51:23;;;;;;;0.50;0.50;;;28.90;30.30;;;;;;5032894;28;20623;-70
2023/03/18 07:53:50;;;;;;;0.43;0.43;;;28.80;30.70;;;;;;5033415;28;20216;-70
2023/03/18 07:56:16;;;;;;;0.97;0.50;;;29.20;30.20;;;;;;5033805;28;20171;-69
2023/03/18 07:58:42;;;;;;;0.80;0.60;;;29.60;30.70;;;;;;5036562;28;20417;-70
2023/03/18 08:01:08;;;;;;;0.50;0.50;;;30.10;29.20;;;;;;5036442;28;20767;-68
2023/03/18 08:03:34;;;;;;;1.77;0.60;;;30.70;28.80;;;;;;5036493;28;20607;-68
2023/03/18 08:06:01;;;;;;;1.00;0.67;;;31.00;28.30;;;;;;5036631;28;20171;-68
2023/03/18 08:08:27;;;;;;;0.90;0.50;;;31.50;28.30;;;;;;5036966;28;20430;-68
2023/03/18 08:10:59;;;;;;;0.50;0.50;;;32.10;26.80;;;;;;5036306;28;20456;-68
2023/03/18 08:13:25;;;;;;;0.53;0.40;;;32.70;25.60;;;;;;5036030;28;20538;-68
2023/03/18 08:15:51;;;;;;;1.00;0.53;;;32.90;25.00;;;;;;5036340;28;20437;-68
2023/03/18 08:18:17;;;;;;;0.50;0.43;;;33.20;24.60;;;;;;5036646;28;20776;-68
2023/03/18 08:20:43;;;;;;;0.60;0.40;;;33.40;23.40;;;;;;5036676;28;20397;-68
2023/03/18 08:23:09;;;;;;;0.60;0.60;;;32.20;22.40;;;;;;5036775;28;20614;-68
2023/03/18 08:25:34;;;;;;;0.90;0.50;;;30.80;23.50;;;;;;5036662;28;20524;-68
2023/03/18 08:28:00;;;;;;;0.33;0.33;;;30.40;23.50;;;;;;5035931;28;20405;-68
2023/03/18 08:30:27;;;;;;;0.50;0.43;;;30.30;23.60;;;;;;5036306;28;20205;-68
2023/03/18 08:32:54;;;;;;;0.43;0.43;;;30.20;23.20;;;;;;5018606;28;20556;-68
2023/03/18 08:35:20;;;;;;;0.50;0.50;;;30.60;22.80;;;;;;5036444;28;20421;-69
2023/03/18 08:37:47;;;;;;;0.40;0.40;;;30.00;23.40;;;;;;5035661;28;20422;-69
2023/03/18 08:40:13;;;;;;;0.40;0.40;;;29.40;23.20;;;;;;5036339;28;20412;-69
2023/03/18 08:42:38;;;;;;;0.30;0.30;;;29.10;23.70;;;;;;5035903;28;20433;-69
2023/03/18 08:45:05;;;;;;;0.47;0.47;;;28.30;23.90;;;;;;5035858;28;20253;-69
2023/03/18 08:47:31;;;;;;;0.40;0.40;;;27.20;25.10;;;;;;5035920;28;20249;-69
2023/03/18 08:49:56;;;;;;;0.80;0.43;;;26.80;25.30;;;;;;5036003;28;20874;-69
2023/03/18 08:52:22;;;;;;;0.30;0.30;;;26.40;25.40;;;;;;5035694;28;20471;-69
2023/03/18 08:54:48;;;;;;;0.50;0.40;;;26.40;25.50;;;;;;5035812;28;20253;-69
2023/03/18 08:57:14;;;;;;;0.40;0.40;;;26.20;25.50;;;;;;5035378;28;20257;-69
2023/03/18 08:59:40;;;;;;;0.53;0.53;;;26.00;25.80;;;;;;5035687;28;20174;-69
2023/03/18 09:02:10;;;;;;;0.50;0.40;;;26.10;26.00;;;;;;5035616;28;20512;-69
2023/03/18 09:04:37;;;;;;;1.53;0.47;;;26.20;25.90;;;;;;5035790;28;20628;-69
2023/03/18 09:07:03;;;;;;;1.00;0.40;;;25.90;25.90;;;;;;5035347;28;20428;-69
2023/03/18 09:09:28;;;;;;;0.50;0.50;;;25.90;26.20;;;;;;5034799;28;20484;-70
2023/03/18 09:11:55;;;;;;;0.40;0.40;;;26.20;25.90;;;;;;5035703;28;20191;-70
2023/03/18 09:14:20;;;;;;;0.50;0.50;;;26.10;26.00;;;;;;5035536;28;20167;-69
2023/03/18 09:16:46;;;;;;;0.40;0.40;;;26.50;25.70;;;;;;5034955;28;20424;-69
2023/03/18 09:19:12;;;;;;;0.40;0.40;;;26.90;24.90;;;;;;5035736;28;20503;-69
2023/03/18 09:21:37;;;;;;;0.50;0.50;;;27.00;24.90;;;;;;5035667;28;20598;-69
2023/03/18 09:24:03;;;;;;;0.30;0.30;;;26.10;25.30;;;;;;5035027;28;20576;-69
2023/03/18 09:26:29;;;;;;;0.40;0.40;;;25.60;26.00;;;;;;5034867;28;20632;-69
2023/03/18 09:28:54;;;;;;;0.40;0.40;;;25.70;26.30;;;;;;5035520;28;20236;-69
2023/03/18 09:31:20;;;;;;;0.37;0.37;;;26.40;26.70;;;;;;5035225;28;20186;-69
2023/03/18 09:33:46;;;;;;;0.30;0.30;;;26.90;25.70;;;;;;5035426;28;20167;-69
2023/03/18 09:36:12;;;;;;;0.40;0.40;;;27.40;25.60;;;;;;5034788;28;20898;-68
2023/03/18 09:38:38;;;;;;;0.40;0.40;;;28.00;25.20;;;;;;5034880;28;20163;-69
2023/03/18 09:41:09;;;;;;;0.30;0.30;;;28.10;24.60;;;;;;5034751;28;20404;-69
2023/03/18 09:43:35;;;;;;;0.30;0.30;;;28.30;24.90;;;;;;5034777;28;20182;-69
2023/03/18 09:46:24;;;;;;;0.93;0.60;;;29.20;25.00;;;;;;5034861;28;20401;-69
2023/03/18 09:49:22;;;;;;;0.40;0.40;;;29.20;23.70;;;;;;5034737;28;20226;-70
2023/03/18 09:51:54;;;;;;;0.40;0.40;;;29.00;24.40;;;;;;5016376;28;20437;-69
2023/03/18 09:54:39;;;;;;;0.30;0.30;;;28.90;24.40;;;;;;5034935;28;20501;-69
2023/03/18 09:57:23;;;;;;;0.40;0.33;;;29.00;24.40;;;;;;5034500;28;20398;-69
2023/03/18 10:00:16;;;;;;;0.37;0.37;;;28.80;24.50;;;;;;5034787;28;20419;-69
2023/03/18 10:03:03;;;;;;;2.83;0.40;;;28.10;25.30;;;;;;5028429;28;20476;-69
2023/03/18 10:05:47;;;;;;;0.40;0.40;;;28.80;24.40;;;;;;5034375;28;20809;-69
2023/03/18 10:08:18;;;;;;;1.10;0.40;;;29.20;24.20;;;;;;5034429;28;20437;-69
2023/03/18 10:10:45;;;;;;;0.97;0.53;;;29.20;24.20;;;;;;5034734;28;20413;-69
2023/03/18 10:13:13;;;;;;;0.40;0.40;;;29.10;24.00;;;;;;5034507;28;20433;-69
2023/03/18 10:15:46;;;;;;;0.43;0.43;;;28.70;23.50;;;;;;5034251;28;20413;-69
2023/03/18 10:18:31;;;;;;;0.93;0.50;;;28.30;25.00;;;;;;5034301;28;20833;-69
2023/03/18 10:21:27;;;;;;;0.40;0.40;;;27.40;25.20;;;;;;5033742;28;20405;-69
2023/03/18 10:24:07;;;;;;;0.60;0.60;;;26.10;25.90;;;;;;5033940;28;20765;-69
2023/03/18 10:27:02;;;;;;;0.40;0.40;;;25.80;26.50;;;;;;5034305;28;20402;-69
2023/03/18 10:29:49;;;;;;;0.30;0.30;;;25.90;25.50;;;;;;5034258;28;20404;-69
2023/03/18 10:32:19;;;;;;;0.40;0.40;;;25.50;25.70;;;;;;5033830;28;20417;-69
2023/03/18 10:34:55;;;;;;;0.50;0.50;;;24.70;25.90;;;;;;5034182;28;20443;-69
2023/03/18 10:37:30;;;;;;;0.50;0.50;;;24.10;27.40;;;;;;5033800;28;20401;-69
2023/03/18 10:39:58;;;;;;;0.40;0.40;;;23.90;27.30;;;;;;5034009;28;20372;-69
2023/03/18 10:42:27;;;;;;;1.13;0.70;;;23.80;27.00;;;;;;5034011;28;20799;-69
2023/03/18 10:45:03;;;;;;;0.40;0.40;;;23.70;27.80;;;;;;5033988;28;20522;-68
2023/03/18 10:47:32;;;;;;;0.30;0.30;;;23.60;27.40;;;;;;5015777;28;20391;-68
2023/03/18 10:50:14;;;;;;;0.50;0.50;;;23.50;27.90;;;;;;5033880;28;20401;-69
2023/03/18 10:53:00;;;;;;;0.40;0.40;;;23.50;27.90;;;;;;5033900;28;20433;-68
2023/03/18 10:55:33;;;;;;;0.30;0.30;;;23.10;28.40;;;;;;5033902;28;20480;-68
2023/03/18 10:58:00;;;;;;;0.97;0.53;;;22.50;29.10;;;;;;5033442;28;20434;-69
2023/03/18 11:00:31;;;;;;;0.30;0.30;;;22.40;28.80;;;;;;5033800;28;20885;-68
2023/03/18 11:02:58;;;;;;;1.53;1.27;;;22.40;29.50;;;;;;5034099;28;20940;-68
2023/03/18 11:05:28;;;;;;;0.63;0.50;;;22.30;29.20;;;;;;5033771;28;20449;-69
2023/03/18 11:08:07;;;;;;;0.50;0.50;;;21.80;29.30;;;;;;5033342;28;20421;-68
2023/03/18 11:10:42;;;;;;;4.93;0.60;;;21.20;29.70;;;;;;5033588;28;20447;-69
2023/03/18 11:13:18;;;;;;;0.40;0.40;;;20.90;30.30;;;;;;5033539;28;20433;-68
2023/03/18 11:15:49;;;;;;;0.40;0.40;;;20.90;30.50;;;;;;5033523;28;20435;-68
2023/03/18 11:18:18;;;;;;;0.47;0.47;;;20.60;30.50;;;;;;5033811;28;20503;-68
2023/03/18 11:20:48;;;;;;;0.37;0.37;;;20.20;31.20;;;;;;5033358;28;20500;-68
2023/03/18 11:23:18;;;;;;;0.63;0.57;;;19.60;32.30;;;;;;5033203;28;20435;-69
2023/03/18 11:25:50;;;;;;;0.30;0.30;;;19.30;32.60;;;;;;5032897;28;20451;-68
2023/03/18 11:28:22;;;;;;;0.30;0.30;;;18.70;33.20;;;;;;5033333;28;20413;-68
2023/03/18 11:30:51;;;;;;;0.57;0.57;;;18.10;34.00;;;;;;5033695;28;20468;-68
2023/03/18 11:33:18;;;;;;;0.37;0.37;;;18.10;34.70;;;;;;5037158;28;20437;-68
2023/03/18 11:35:49;;;;;;;0.40;0.40;;;17.80;34.70;;;;;;5037084;28;20406;-68
2023/03/18 11:38:20;;;;;;;0.40;0.40;;;17.60;34.70;;;;;;5037439;28;20409;-68
2023/03/18 11:40:46;;;;;;;0.40;0.40;;;17.70;35.20;;;;;;5037167;28;20976;-68
2023/03/18 11:43:24;;;;;;;0.40;0.40;;;17.80;34.50;;;;;;5037276;28;20481;-68
2023/03/18 11:45:56;;;;;;;3.50;0.93;;;18.00;34.80;;;;;;5036734;28;20201;-68
2023/03/18 11:48:29;;;;;;;0.40;0.40;;;17.90;34.00;;;;;;5037148;28;20420;-68
2023/03/18 11:51:32;;;;;;;2.93;0.87;;;17.80;34.20;;;;;;5037145;28;20393;-68
2023/03/18 11:54:13;;;;;;;0.97;0.97;;;17.70;34.60;;;;;;5018707;28;20971;-68
2023/03/18 11:56:56;;;;;;;0.40;0.40;;;17.60;35.30;;;;;;5036503;28;20385;-68
2023/03/18 11:59:42;;;;;;;0.93;0.93;;;17.50;36.30;;;;;;5036710;28;20408;-68
2023/03/18 12:02:26;;;;;;;0.50;0.50;;;17.20;36.20;;;;;;5036847;28;20926;-68
2023/03/18 12:05:22;;;;;;;0.90;0.87;;;17.10;37.10;;;;;;5036672;28;20460;-68
2023/03/18 12:07:58;;;;;;;0.60;0.60;;;17.40;36.50;;;;;;5036885;28;20398;-68
2023/03/18 12:10:40;;;;;;;0.40;0.40;;;17.50;35.80;;;;;;5036606;28;20516;-68
2023/03/18 12:13:29;;;;;;;0.43;0.43;;;17.70;35.80;;;;;;5036471;28;20414;-68
2023/03/18 12:16:20;;;;;;;0.30;0.30;;;17.80;35.90;;;;;;5036297;28;20447;-68
2023/03/18 12:19:16;;;;;;;0.53;0.53;;;17.80;36.20;;;;;;5036784;28;20398;-68
2023/03/18 12:22:03;;;;;;;0.40;0.40;;;17.50;35.60;;;;;;5036274;28;20421;-68
2023/03/18 12:24:43;;;;;;;0.50;0.50;;;17.40;36.40;;;;;;5036032;28;20469;-68
2023/03/18 12:27:21;;;;;;;0.30;0.30;;;17.30;36.50;;;;;;5036169;28;20492;-68
2023/03/18 12:29:55;;;;;;;0.40;0.40;;;17.40;36.70;;;;;;5036280;28;20429;-68
2023/03/18 12:32:30;;;;;;;0.97;0.70;;;17.40;36.00;;;;;;5036263;28;20429;-68
2023/03/18 12:35:33;;;;;;;0.47;0.40;;;17.30;36.10;;;;;;5036100;28;20433;-68
2023/03/18 12:38:13;;;;;;;0.73;0.73;;;17.30;36.70;;;;;;5018072;28;20413;-68
2023/03/18 12:40:56;;;;;;;0.50;0.50;;;17.10;36.40;;;;;;5036212;28;20393;-68
2023/03/18 12:43:28;;;;;;;0.60;0.60;;;17.10;36.90;;;;;;5034934;28;20952;-68
2023/03/18 12:46:03;;;;;;;0.43;0.43;;;17.30;36.80;;;;;;5036164;28;20472;-68
2023/03/18 12:48:49;;;;;;;0.40;0.40;;;17.30;36.60;;;;;;5035999;28;20432;-68
2023/03/18 12:51:21;;;;;;;0.50;0.50;;;17.40;36.90;;;;;;5036050;28;20394;-68
2023/03/18 12:53:54;;;;;;;0.83;0.83;;;17.40;36.40;;;;;;5035940;28;20382;-68
2023/03/18 12:56:26;;;;;;;0.57;0.57;;;17.30;36.40;;;;;;5035871;28;20425;-68
2023/03/18 12:58:54;;;;;;;0.63;0.63;;;17.10;37.10;;;;;;5035940;28;20455;-68
2023/03/18 13:01:50;;;;;;;0.40;0.40;;;17.00;36.60;;;;;;5035854;28;20433;-68
2023/03/18 13:04:21;;;;;;;0.40;0.40;;;17.20;37.00;;;;;;5035541;28;20540;-69
2023/03/18 13:06:59;;;;;;;9.40;0.67;;;17.40;37.30;;;;;;5035660;28;20948;-69